Time;durP1;ratioP1;P1;durP2;ratioP2;P2;SDS_P1;SDS_P2;PMS_P1;PMS_P2;Temp;Humidity;BMP_temperature;BMP_pressure;BME280_temperature;BME280_humidity;BME280_pressure;Samples;Min_cycle;Max_cycle;Signal;HPM_P1;HPM_P2
2022/06/05 00:01:14;;;;;;;0.68;0.30;;;;;;;19.32;57.45;96458.97;10450011;28;20090;-22
2022/06/05 00:06:25;;;;;;;0.30;0.30;;;;;;;19.29;57.33;96443.78;10436466;28;20040;-22
2022/06/05 00:11:27;;;;;;;0.35;0.35;;;;;;;19.28;57.39;96452.25;10408509;28;20482;-22
2022/06/05 00:16:29;;;;;;;0.47;0.45;;;;;;;19.30;57.37;96514.00;10408479;28;20033;-22
2022/06/05 00:21:29;;;;;;;0.55;0.55;;;;;;;19.26;57.51;96497.13;10409078;28;20123;-22
2022/06/05 00:26:55;;;;;;;0.70;0.40;;;;;;;19.22;57.47;96452.28;10408158;28;20030;-22
2022/06/05 00:32:07;;;;;;;0.40;0.40;;;;;;;19.23;57.42;96456.50;10414243;28;20067;-22
2022/06/05 00:37:35;;;;;;;0.57;0.57;;;;;;;19.32;59.68;96446.28;10421564;28;20519;-23
2022/06/05 00:42:36;;;;;;;0.40;0.40;;;;;;;19.58;58.24;96450.31;10407877;28;20312;-22
2022/06/05 00:47:38;;;;;;;0.30;0.30;;;;;;;19.60;57.24;96435.91;10408140;28;20037;-21
2022/06/05 00:52:41;;;;;;;0.40;0.40;;;;;;;19.46;57.73;96444.50;10453012;28;20040;-22
2022/06/05 00:57:42;;;;;;;0.45;0.40;;;;;;;19.37;57.22;96445.44;10440847;28;20038;-21
2022/06/05 01:02:45;;;;;;;0.30;0.30;;;;;;;19.31;57.28;96422.63;10407780;28;20029;-21
2022/06/05 01:07:46;;;;;;;0.52;0.45;;;;;;;19.29;57.33;96401.50;10436063;28;20403;-22
2022/06/05 01:13:07;;;;;;;0.32;0.32;;;;;;;19.27;57.26;96399.81;10431127;28;20053;-22
2022/06/05 01:18:30;;;;;;;0.70;0.43;;;;;;;19.26;57.32;96385.44;10414820;28;20041;-23
2022/06/05 01:24:03;;;;;;;0.30;0.30;;;;;;;19.25;57.33;96371.06;10414439;28;20037;-22
2022/06/05 01:29:13;;;;;;;0.32;0.32;;;;;;;19.23;57.38;96357.53;10414434;28;20030;-21
2022/06/05 01:34:21;;;;;;;0.38;0.38;;;;;;;19.24;57.52;96366.84;10437461;28;20036;-22
2022/06/05 01:39:44;;;;;;;0.40;0.40;;;;;;;19.48;58.51;96342.06;10455514;28;20043;-23
2022/06/05 01:44:48;;;;;;;0.30;0.30;;;;;;;19.61;57.03;96323.31;10414034;28;20053;-21
2022/06/05 01:49:57;;;;;;;0.43;0.43;;;;;;;19.46;57.78;96322.63;10414331;28;20061;-22
2022/06/05 01:55:12;;;;;;;0.30;0.30;;;;;;;19.34;57.18;96305.81;10413484;28;20378;-22
2022/06/05 02:00:17;;;;;;;0.32;0.32;;;;;;;19.33;57.19;96300.78;10413465;28;20168;-22
2022/06/05 02:05:23;;;;;;;0.40;0.40;;;;;;;19.29;57.28;96296.56;10413154;28;20393;-22
2022/06/05 02:10:30;;;;;;;0.30;0.30;;;;;;;19.29;57.13;96301.66;10417580;28;20090;-23
2022/06/05 02:15:31;;;;;;;0.30;0.30;;;;;;;19.29;57.22;96304.19;10454293;28;20068;-22
2022/06/05 02:20:31;;;;;;;0.30;0.30;;;;;;;19.27;57.40;96321.97;10430651;28;20044;-22
2022/06/05 02:25:34;;;;;;;0.32;0.32;;;;;;;19.27;57.48;96316.06;10417424;28;20033;-22
2022/06/05 02:31:00;;;;;;;0.40;0.40;;;;;;;19.29;57.33;96344.78;10453702;28;20080;-22
2022/06/05 02:36:34;;;;;;;0.38;0.38;;;;;;;19.46;58.89;96373.41;10424276;28;20057;-21
2022/06/05 02:41:53;;;;;;;0.50;0.50;;;;;;;19.66;57.63;96417.25;10412278;28;20048;-22
2022/06/05 02:47:05;;;;;;;0.65;0.55;;;;;;;19.44;57.80;96421.66;10411278;28;20053;-23
2022/06/05 02:52:07;;;;;;;0.40;0.40;;;;;;;19.39;57.33;96432.69;10447392;28;20040;-24
2022/06/05 02:57:09;;;;;;;0.50;0.40;;;;;;;19.37;57.18;96457.25;10453732;28;20125;-21
2022/06/05 03:07:28;;;;;;;0.50;0.47;;;;;;;19.34;57.25;96536.00;10410437;28;20030;-21
2022/06/05 03:12:28;;;;;;;0.30;0.30;;;;;;;19.32;57.29;96537.66;10409949;28;20064;-22
2022/06/05 03:17:29;;;;;;;0.50;0.50;;;;;;;19.29;57.33;96535.16;10410108;28;20411;-22
2022/06/05 03:22:29;;;;;;;0.65;0.55;;;;;;;19.28;57.48;96541.09;10410002;28;20033;-22
2022/06/05 03:27:31;;;;;;;0.30;0.30;;;;;;;19.27;57.28;96549.56;10431935;28;20063;-22
2022/06/05 03:32:31;;;;;;;0.55;0.55;;;;;;;19.34;59.63;96561.38;10449925;28;20055;-22
2022/06/05 03:37:32;;;;;;;0.43;0.43;;;;;;;19.61;58.10;96581.50;10421244;28;20037;-22
2022/06/05 03:42:32;;;;;;;0.20;0.20;;;;;;;19.66;57.22;96605.19;10409053;28;20044;-22
2022/06/05 03:47:32;;;;;;;0.30;0.30;;;;;;;19.51;57.71;96615.44;10409436;28;20322;-23
2022/06/05 03:52:33;;;;;;;0.30;0.30;;;;;;;19.32;57.13;96532.59;10452644;28;20041;-22
2022/06/05 03:57:33;;;;;;;0.30;0.30;;;;;;;19.23;57.36;96278.84;10467038;28;20068;-23
2022/06/05 04:02:34;;;;;;;0.30;0.30;;;;;;;19.30;57.28;96376.94;10448721;28;20283;-22
2022/06/05 04:07:35;;;;;;;0.40;0.40;;;;;;;19.34;57.20;96437.00;10408172;28;20048;-22
2022/06/05 04:12:35;;;;;;;0.50;0.50;;;;;;;19.32;57.43;96464.91;10430831;28;20134;-22
2022/06/05 04:17:36;;;;;;;0.30;0.30;;;;;;;19.32;57.15;96466.59;10450070;28;20048;-23
2022/06/05 04:22:38;;;;;;;0.75;0.55;;;;;;;19.32;57.10;96482.69;10412225;28;20522;-23
2022/06/05 04:27:38;;;;;;;0.50;0.45;;;;;;;19.30;57.61;96475.91;10408209;28;20049;-22
2022/06/05 04:32:38;;;;;;;0.40;0.37;;;;;;;19.43;58.71;96495.31;10419145;28;20064;-22
2022/06/05 04:37:39;;;;;;;0.30;0.30;;;;;;;19.64;57.82;96484.97;10412858;28;20041;-22
2022/06/05 04:42:39;;;;;;;0.50;0.50;;;;;;;19.61;57.39;96485.81;10433373;28;20287;-21
2022/06/05 04:47:42;;;;;;;0.40;0.40;;;;;;;19.41;57.51;96486.88;10457327;28;20145;-22
2022/06/05 04:52:42;;;;;;;0.50;0.45;;;;;;;19.42;57.09;96513.94;10470346;28;20070;-21
2022/06/05 04:57:44;;;;;;;0.30;0.30;;;;;;;19.35;57.17;96497.06;10449117;28;20037;-22
2022/06/05 05:02:44;;;;;;;0.40;0.40;;;;;;;19.28;57.08;96480.19;10415370;28;20634;-22
2022/06/05 05:07:44;;;;;;;0.50;0.50;;;;;;;19.33;57.13;96519.06;10414872;28;20047;-21
2022/06/05 05:12:45;;;;;;;0.57;0.57;;;;;;;19.33;57.09;96554.63;10414654;28;20041;-22
2022/06/05 05:17:46;;;;;;;0.50;0.40;;;;;;;19.28;57.15;96569.00;10414240;28;20400;-23
2022/06/05 05:22:47;;;;;;;0.30;0.30;;;;;;;19.33;57.22;96582.53;10414759;28;20030;-22
2022/06/05 05:27:47;;;;;;;0.37;0.37;;;;;;;19.32;57.17;96596.06;10414317;28;20424;-22
2022/06/05 05:32:47;;;;;;;0.45;0.40;;;;;;;19.49;58.74;96581.59;10422066;28;20559;-22
2022/06/05 05:37:48;;;;;;;0.30;0.30;;;;;;;19.67;58.10;96551.00;10414500;28;20385;-23
2022/06/05 05:42:48;;;;;;;0.30;0.30;;;;;;;19.58;57.51;96533.28;10413715;28;20476;-22
2022/06/05 05:47:49;;;;;;;0.30;0.30;;;;;;;19.47;57.30;96550.28;10415329;28;20373;-22
2022/06/05 05:52:49;;;;;;;0.40;0.40;;;;;;;19.41;57.12;96537.63;10477866;28;20048;-22
2022/06/05 05:57:50;;;;;;;0.37;0.37;;;;;;;19.36;57.24;96513.97;10469012;28;20033;-22
2022/06/05 06:02:51;;;;;;;0.30;0.30;;;;;;;19.32;57.02;96486.91;10455228;28;20312;-22
2022/06/05 06:07:51;;;;;;;0.20;0.20;;;;;;;19.33;57.09;96489.44;10426251;28;20049;-22
2022/06/05 06:12:51;;;;;;;0.50;0.50;;;;;;;19.32;57.08;96491.97;10412899;28;20048;-22
2022/06/05 06:17:52;;;;;;;0.40;0.20;;;;;;;19.31;57.02;96480.16;10412378;28;20037;-22
2022/06/05 06:22:52;;;;;;;0.27;0.27;;;;;;;19.31;57.13;96475.06;10412067;28;20033;-23
2022/06/05 06:27:53;;;;;;;0.40;0.40;;;;;;;19.32;57.22;96492.84;10439118;28;20041;-22
2022/06/05 06:32:54;;;;;;;0.52;0.30;;;;;;;19.56;58.30;96491.81;10455369;28;20618;-22
2022/06/05 06:37:54;;;;;;;0.20;0.20;;;;;;;19.68;56.83;96492.53;10454722;28;20179;-22
2022/06/05 06:42:55;;;;;;;0.20;0.20;;;;;;;19.54;57.65;96498.59;10428918;28;20532;-21
2022/06/05 06:47:57;;;;;;;0.38;0.38;;;;;;;19.44;57.03;96497.81;10411994;28;20033;-22
2022/06/05 06:52:57;;;;;;;0.40;0.40;;;;;;;19.39;57.16;96498.69;10479324;28;20032;-21
2022/06/05 06:57:57;;;;;;;0.20;0.20;;;;;;;19.35;57.14;96482.66;10442038;28;20044;-21
2022/06/05 07:02:58;;;;;;;0.73;0.57;;;;;;;19.32;57.28;96476.75;10412256;28;20120;-22
2022/06/05 07:07:58;;;;;;;0.20;0.20;;;;;;;19.32;57.10;96471.66;10411534;28;20048;-23
2022/06/05 07:12:59;;;;;;;0.55;0.50;;;;;;;19.30;57.08;96442.94;10412359;28;20044;-22
2022/06/05 07:18:01;;;;;;;0.50;0.50;;;;;;;19.23;57.14;96420.97;10412287;28;20115;-22
2022/06/05 07:23:03;;;;;;;0.60;0.40;;;;;;;19.29;57.05;96423.47;10412531;28;20032;-21
2022/06/05 07:28:05;;;;;;;0.25;0.25;;;;;;;19.37;59.29;96431.88;10424604;28;20064;-22
2022/06/05 07:33:05;;;;;;;0.30;0.30;;;;;;;19.61;57.89;96413.91;10422939;28;20381;-23
2022/06/05 07:38:05;;;;;;;0.17;0.17;;;;;;;19.67;57.04;96403.69;10411801;28;20045;-21
2022/06/05 07:43:09;;;;;;;0.43;0.43;;;;;;;19.51;57.67;96402.97;10411629;28;20053;-22
2022/06/05 07:48:09;;;;;;;0.25;0.25;;;;;;;19.36;57.09;96392.97;10410881;28;20295;-21
2022/06/05 07:58:28;;;;;;;0.38;0.38;;;;;;;19.35;57.34;96433.59;10431416;28;20295;-22
2022/06/05 08:03:29;;;;;;;0.40;0.40;;;;;;;19.36;57.07;96420.03;10410528;28;20510;-21
2022/06/05 08:08:29;;;;;;;0.73;0.50;;;;;;;19.31;56.94;96420.09;10451852;28;20037;-22
2022/06/05 08:13:29;;;;;;;0.40;0.40;;;;;;;19.35;57.11;96456.44;10419952;28;20400;-22
2022/06/05 08:18:30;;;;;;;0.87;0.60;;;;;;;19.40;57.57;96513.06;10407901;28;20047;-21
2022/06/05 08:23:30;;;;;;;0.43;0.40;;;;;;;19.37;57.17;96526.66;10408052;28;20300;-22
2022/06/05 08:28:30;;;;;;;0.30;0.30;;;;;;;19.48;58.44;96550.28;10408530;28;20037;-21
2022/06/05 08:33:31;;;;;;;0.40;0.40;;;;;;;19.67;57.82;96543.38;10426080;28;20450;-21
2022/06/05 08:44:09;;;;;;;0.30;0.30;;;;;;;19.51;57.14;96555.31;10440668;28;20284;-21
2022/06/05 08:49:10;;;;;;;0.40;0.40;;;;;;;19.38;57.12;96532.56;10437764;28;20539;-21
2022/06/05 08:54:38;;;;;;;0.30;0.30;;;;;;;19.39;57.07;96541.84;10478747;28;20043;-21
2022/06/05 08:59:46;;;;;;;0.40;0.40;;;;;;;19.34;57.07;96525.84;10409155;28;20037;-22
2022/06/05 09:04:52;;;;;;;0.38;0.38;;;;;;;19.30;57.19;96525.00;10421531;28;20480;-22
2022/06/05 09:10:15;;;;;;;0.30;0.30;;;;;;;19.33;57.12;96519.06;10447867;28;20044;-22
2022/06/05 09:15:26;;;;;;;0.40;0.40;;;;;;;19.30;57.22;96498.78;10407038;28;20103;-21
2022/06/05 09:20:41;;;;;;;0.43;0.30;;;;;;;19.30;57.21;96473.38;10414922;28;20037;-21
2022/06/05 09:25:50;;;;;;;0.30;0.30;;;;;;;19.32;57.52;96466.59;10439904;28;20041;-21
2022/06/05 09:31:08;;;;;;;0.40;0.40;;;;;;;19.56;58.34;96416.47;10411805;28;20033;-21
2022/06/05 09:36:13;;;;;;;0.20;0.20;;;;;;;19.67;56.99;96439.25;10452628;28;20037;-23
2022/06/05 09:41:25;;;;;;;0.40;0.40;;;;;;;19.54;57.33;96428.34;10444214;28;20040;-20
2022/06/05 09:46:56;;;;;;;0.30;0.30;;;;;;;19.47;56.99;96430.94;10414476;28;20048;-21
2022/06/05 09:52:08;;;;;;;0.43;0.32;;;;;;;19.41;56.96;96415.78;10448331;28;20166;-22
2022/06/05 10:03:01;;;;;;;0.25;0.25;;;;;;;19.36;57.10;96420.91;10413546;28;20103;-22
2022/06/05 10:08:18;;;;;;;0.50;0.50;;;;;;;19.37;57.09;96447.09;10448756;28;20037;-21
2022/06/05 10:13:37;;;;;;;0.50;0.50;;;;;;;19.38;57.06;96466.56;10425076;28;20205;-22
2022/06/05 10:18:51;;;;;;;0.50;0.50;;;;;;;19.37;57.58;96478.44;10413046;28;20034;-24
2022/06/05 10:24:04;;;;;;;0.70;0.60;;;;;;;19.41;57.19;96494.47;10412362;28;20036;-22
2022/06/05 10:29:28;;;;;;;0.30;0.30;;;;;;;19.61;58.50;96500.25;10412041;28;20463;-21
2022/06/05 10:34:36;;;;;;;0.30;0.30;;;;;;;19.74;57.42;96477.25;10432073;28;20034;-22
2022/06/05 10:40:11;;;;;;;0.30;0.30;;;;;;;19.59;57.74;96461.31;10411855;28;20036;-22
2022/06/05 10:45:49;;;;;;;0.38;0.38;;;;;;;19.50;57.11;96461.41;10410544;28;20415;-21
2022/06/05 10:50:56;;;;;;;0.20;0.20;;;;;;;19.48;57.26;96473.25;10427304;28;20081;-21
2022/06/05 10:55:59;;;;;;;0.40;0.40;;;;;;;19.45;57.08;96481.75;10482425;28;20037;-22
2022/06/05 11:01:05;;;;;;;0.50;0.50;;;;;;;19.44;57.16;96520.66;10451998;28;20033;-22
2022/06/05 11:06:18;;;;;;;0.30;0.30;;;;;;;19.42;57.20;96508.84;10440583;28;20037;-21
2022/06/05 11:16:59;;;;;;;0.57;0.57;;;;;;;19.39;57.08;96486.00;10410230;28;20089;-21
2022/06/05 11:22:09;;;;;;;1.63;0.50;;;;;;;19.41;57.06;96497.03;10410254;28;20038;-22
2022/06/05 11:27:15;;;;;;;0.30;0.30;;;;;;;19.57;58.61;96509.56;10410248;28;20041;-22
2022/06/05 11:32:23;;;;;;;0.25;0.25;;;;;;;19.76;57.90;96515.38;10417834;28;20041;-22
2022/06/05 11:37:48;;;;;;;0.55;0.30;;;;;;;19.63;57.92;96529.00;10450125;28;20116;-21
2022/06/05 11:43:17;;;;;;;0.30;0.30;;;;;;;19.54;57.15;96534.16;10426086;28;20458;-22
2022/06/05 11:48:29;;;;;;;0.30;0.30;;;;;;;19.43;57.07;96529.13;10409292;28;20131;-21
2022/06/05 11:54:00;;;;;;;0.45;0.45;;;;;;;19.44;57.11;96552.84;10467851;28;20064;-22
2022/06/05 11:59:22;;;;;;;0.30;0.30;;;;;;;19.42;57.02;96539.31;10421488;28;20053;-21
2022/06/05 12:04:47;;;;;;;0.30;0.30;;;;;;;19.40;57.11;96533.38;10414070;28;20045;-21
2022/06/05 12:09:54;;;;;;;0.20;0.20;;;;;;;19.39;57.15;96513.94;10449799;28;20024;-21
2022/06/05 12:15:17;;;;;;;0.30;0.30;;;;;;;19.36;57.11;96513.97;10408394;28;20408;-21
2022/06/05 12:20:26;;;;;;;0.50;0.50;;;;;;;19.38;57.15;96517.34;10408531;28;20559;-22
2022/06/05 12:25:31;;;;;;;0.40;0.40;;;;;;;19.57;58.81;96514.66;10408411;28;20496;-21
2022/06/05 12:30:50;;;;;;;0.20;0.20;;;;;;;19.78;57.94;96518.72;10409031;28;20232;-21
2022/06/05 12:35:54;;;;;;;0.30;0.30;;;;;;;19.63;57.67;96521.38;10431289;28;20034;-21
2022/06/05 12:41:05;;;;;;;0.50;0.40;;;;;;;19.54;56.95;96518.91;10408144;28;20048;-21
2022/06/05 12:46:20;;;;;;;0.50;0.50;;;;;;;19.50;57.13;96522.34;10407643;28;20499;-21
2022/06/05 12:51:25;;;;;;;1.02;0.40;;;;;;;19.39;57.39;96506.31;10432002;28;20473;-21
2022/06/05 12:56:28;;;;;;;0.32;0.32;;;;;;;19.45;57.13;96517.31;10461976;28;20515;-22
2022/06/05 13:01:43;;;;;;;0.50;0.50;;;;;;;19.47;57.17;96512.19;10408230;28;20037;-22
2022/06/05 13:06:53;;;;;;;0.40;0.40;;;;;;;19.47;57.74;96512.19;10414300;28;20512;-21
2022/06/05 13:12:00;;;;;;;0.60;0.60;;;;;;;19.46;57.12;96513.03;10414992;28;20060;-21
2022/06/05 13:17:15;;;;;;;0.20;0.20;;;;;;;19.48;57.66;96513.88;10414490;28;20048;-23
2022/06/05 13:22:46;;;;;;;0.20;0.20;;;;;;;19.59;58.75;96507.84;10414725;28;20108;-22
2022/06/05 13:27:58;;;;;;;0.38;0.38;;;;;;;19.80;58.06;96509.38;10414136;28;20033;-21
2022/06/05 13:33:08;;;;;;;0.30;0.30;;;;;;;19.67;58.06;96505.28;10427696;28;20045;-21
2022/06/05 13:38:27;;;;;;;0.45;0.45;;;;;;;19.59;57.48;96491.81;10414393;28;20076;-21
2022/06/05 13:43:38;;;;;;;1.70;0.50;;;;;;;19.55;57.22;96479.97;10413958;28;20033;-22
2022/06/05 13:48:58;;;;;;;0.30;0.30;;;;;;;19.52;57.37;96480.81;10413708;28;20037;-21
2022/06/05 13:54:06;;;;;;;0.30;0.30;;;;;;;19.55;57.86;96479.97;10481405;28;20105;-21
2022/06/05 13:59:18;;;;;;;0.65;0.60;;;;;;;19.52;57.64;96463.06;10424430;28;20045;-22
2022/06/05 14:04:25;;;;;;;0.35;0.35;;;;;;;19.50;57.56;96457.16;10413304;28;20400;-22
2022/06/05 14:09:42;;;;;;;0.47;0.47;;;;;;;19.50;57.35;96486.78;10413483;28;20037;-21
2022/06/05 14:14:45;;;;;;;0.60;0.43;;;;;;;19.50;57.33;96507.09;10411955;28;20040;-23
2022/06/05 14:19:53;;;;;;;0.30;0.30;;;;;;;19.58;59.32;96520.59;10412652;28;20076;-22
2022/06/05 14:24:56;;;;;;;0.30;0.30;;;;;;;19.78;57.99;96527.19;10412784;28;20116;-22
2022/06/05 14:29:58;;;;;;;0.20;0.20;;;;;;;19.80;57.39;96534.78;10412999;28;20499;-21
2022/06/05 14:35:15;;;;;;;0.20;0.20;;;;;;;19.65;57.85;96545.91;10433620;28;20033;-21
2022/06/05 14:40:19;;;;;;;0.35;0.35;;;;;;;19.60;57.50;96526.50;10411464;28;20048;-21
2022/06/05 14:45:27;;;;;;;0.68;0.50;;;;;;;19.55;57.41;96510.44;10411977;28;20069;-21
2022/06/05 14:50:32;;;;;;;0.30;0.30;;;;;;;19.52;57.34;96505.41;10420764;28;20038;-21
2022/06/05 15:01:24;;;;;;;0.40;0.40;;;;;;;19.49;57.46;96528.28;10410886;28;20041;-21
2022/06/05 15:06:30;;;;;;;0.50;0.50;;;;;;;19.46;57.30;96528.28;10430687;28;20393;-21
2022/06/05 15:11:45;;;;;;;0.50;0.50;;;;;;;19.48;58.00;96610.34;10437121;28;20034;-22
2022/06/05 15:16:56;;;;;;;0.75;0.50;;;;;;;19.61;60.70;96779.59;10410342;28;20110;-21
2022/06/05 15:22:04;;;;;;;0.30;0.30;;;;;;;19.76;58.58;96733.81;10441235;28;20553;-21
2022/06/05 15:27:15;;;;;;;0.30;0.30;;;;;;;19.87;57.05;96754.94;10432589;28;20051;-21
2022/06/05 15:32:40;;;;;;;0.40;0.40;;;;;;;19.66;57.81;96752.50;10417392;28;20047;-21
2022/06/05 15:37:53;;;;;;;0.25;0.25;;;;;;;19.56;57.14;96759.31;10409844;28;20034;-20
2022/06/05 15:43:25;;;;;;;0.30;0.30;;;;;;;19.53;57.14;96755.94;10433899;28;20116;-21
2022/06/05 15:49:04;;;;;;;0.65;0.40;;;;;;;19.48;57.19;96744.94;10450606;28;20032;-22
2022/06/05 15:54:26;;;;;;;0.55;0.50;;;;;;;19.46;57.38;96741.56;10478312;28;20037;-23
2022/06/05 15:59:40;;;;;;;0.20;0.20;;;;;;;19.44;57.22;96739.00;10451917;28;20498;-22
2022/06/05 16:04:43;;;;;;;0.32;0.30;;;;;;;19.42;57.25;96722.94;10450170;28;20533;-21
2022/06/05 16:10:10;;;;;;;0.40;0.30;;;;;;;19.43;57.05;96726.34;10408581;28;20124;-21
2022/06/05 16:15:28;;;;;;;0.40;0.40;;;;;;;19.37;57.04;96724.69;10408099;28;20037;-21
2022/06/05 16:20:44;;;;;;;0.20;0.20;;;;;;;19.71;58.08;96745.69;10408446;28;20037;-22
2022/06/05 16:25:59;;;;;;;0.20;0.20;;;;;;;19.76;56.86;96752.44;10408084;28;20026;-21
2022/06/05 16:31:15;;;;;;;0.30;0.30;;;;;;;19.61;57.87;96766.91;10408014;28;20045;-21
2022/06/05 16:41:58;;;;;;;0.20;0.20;;;;;;;19.50;57.28;96777.09;10441093;28;20037;-22
2022/06/05 16:46:59;;;;;;;0.30;0.30;;;;;;;19.48;57.23;96768.66;10416032;28;20029;-22
2022/06/05 16:51:59;;;;;;;0.30;0.30;;;;;;;19.46;57.18;96759.34;10450438;28;20463;-22
2022/06/05 16:57:03;;;;;;;0.82;0.47;;;;;;;19.47;57.17;96758.47;10461695;28;20090;-21
2022/06/05 17:02:17;;;;;;;1.15;0.43;;;;;;;19.47;57.10;96761.03;10415182;28;20388;-22
2022/06/05 17:07:30;;;;;;;0.30;0.30;;;;;;;19.45;57.22;96760.19;10415238;28;20033;-22
2022/06/05 17:12:45;;;;;;;0.47;0.47;;;;;;;19.46;57.29;96759.34;10415106;28;20755;-22
2022/06/05 17:17:49;;;;;;;0.32;0.28;;;;;;;19.71;58.22;96755.84;10415377;28;20472;-21
2022/06/05 17:22:55;;;;;;;0.20;0.20;;;;;;;19.80;56.58;96750.72;10414902;28;20030;-22
2022/06/05 17:28:25;;;;;;;0.30;0.30;;;;;;;19.66;57.61;96763.50;10414905;28;20029;-21
2022/06/05 17:33:39;;;;;;;0.20;0.20;;;;;;;19.58;57.13;96761.84;10431113;28;20041;-21
2022/06/05 17:39:06;;;;;;;0.40;0.40;;;;;;;19.46;57.08;96733.94;10454377;28;20044;-22
2022/06/05 17:44:13;;;;;;;0.30;0.25;;;;;;;19.49;57.30;96741.56;10418730;28;20029;-22
2022/06/05 17:49:37;;;;;;;0.47;0.30;;;;;;;19.47;56.99;96730.56;10412105;28;20033;-22
2022/06/05 17:55:02;;;;;;;0.30;0.30;;;;;;;19.46;57.14;96728.88;10434939;28;20041;-22
2022/06/05 18:00:04;;;;;;;0.63;0.30;;;;;;;19.46;57.01;96718.72;10413369;28;20118;-22
2022/06/05 18:05:23;;;;;;;0.30;0.30;;;;;;;19.45;56.95;96722.97;10412937;28;20044;-21
2022/06/05 18:10:30;;;;;;;0.43;0.43;;;;;;;19.44;57.10;96725.50;10417136;28;20037;-22
2022/06/05 18:15:31;;;;;;;0.22;0.22;;;;;;;19.65;58.48;96711.00;10453853;28;20044;-22
2022/06/05 18:20:45;;;;;;;0.20;0.20;;;;;;;19.84;57.28;96720.22;10441365;28;20186;-21
2022/06/05 18:25:48;;;;;;;0.20;0.20;;;;;;;19.68;57.64;96727.94;10412442;28;20033;-22
2022/06/05 18:31:12;;;;;;;0.20;0.20;;;;;;;19.60;56.92;96737.28;10412947;28;20345;-21
2022/06/05 18:41:59;;;;;;;0.30;0.30;;;;;;;19.51;57.04;96732.25;10429130;28;20064;-22
2022/06/05 18:47:03;;;;;;;0.35;0.30;;;;;;;19.49;57.02;96733.94;10452645;28;20067;-21
2022/06/05 18:52:13;;;;;;;0.20;0.20;;;;;;;19.48;56.85;96732.22;10466832;28;20047;-21
2022/06/05 18:57:13;;;;;;;0.30;0.30;;;;;;;19.46;56.90;96723.78;10453017;28;20037;-21
2022/06/05 19:02:18;;;;;;;1.92;0.50;;;;;;;19.47;56.98;96741.56;10410979;28;20095;-22
2022/06/05 19:07:28;;;;;;;0.30;0.30;;;;;;;19.47;57.05;96731.41;10411359;28;20037;-21
2022/06/05 19:12:50;;;;;;;0.40;0.30;;;;;;;19.63;58.37;96737.25;10411176;28;20036;-21
2022/06/05 19:17:55;;;;;;;0.20;0.20;;;;;;;19.84;57.50;96729.56;10410574;28;20033;-21
2022/06/05 19:22:59;;;;;;;0.28;0.20;;;;;;;19.70;57.38;96749.94;10410984;28;20065;-21
2022/06/05 19:28:02;;;;;;;0.20;0.20;;;;;;;19.61;57.35;96766.91;10410205;28;20045;-21
2022/06/05 19:33:31;;;;;;;0.35;0.32;;;;;;;19.57;57.04;96770.28;10419678;28;20245;-21
2022/06/05 19:38:31;;;;;;;0.40;0.40;;;;;;;19.53;57.01;96773.69;10409911;28;20112;-21
2022/06/05 19:44:00;;;;;;;0.27;0.27;;;;;;;19.51;56.98;96777.94;10409531;28;20116;-22
2022/06/05 19:49:28;;;;;;;0.20;0.20;;;;;;;19.48;56.88;96773.72;10409577;28;20053;-21
2022/06/05 19:54:33;;;;;;;0.45;0.40;;;;;;;19.47;56.92;96773.72;10485322;28;20068;-21
2022/06/05 19:59:35;;;;;;;0.50;0.50;;;;;;;19.47;57.02;96781.34;10450448;28;20037;-21
2022/06/05 20:04:38;;;;;;;0.20;0.20;;;;;;;19.45;56.73;96783.03;10438181;28;20034;-21
2022/06/05 20:09:42;;;;;;;0.20;0.20;;;;;;;19.58;58.63;96794.88;10409446;28;20128;-21
2022/06/05 20:14:51;;;;;;;0.40;0.22;;;;;;;19.80;57.88;96796.47;10407917;28;20033;-22
2022/06/05 20:20:12;;;;;;;0.10;0.10;;;;;;;19.75;57.45;96805.81;10408134;28;20045;-21
2022/06/05 20:25:43;;;;;;;0.30;0.30;;;;;;;19.62;57.29;96806.69;10407708;28;20034;-22
2022/06/05 20:31:13;;;;;;;0.20;0.20;;;;;;;19.58;57.19;96820.25;10407788;28;20037;-21
2022/06/05 20:36:17;;;;;;;0.30;0.30;;;;;;;19.55;57.14;96828.72;10446546;28;20415;-21
2022/06/05 20:41:36;;;;;;;0.40;0.40;;;;;;;19.53;57.10;96848.22;10436215;28;20048;-21
2022/06/05 20:46:57;;;;;;;0.30;0.30;;;;;;;19.51;57.10;96849.88;10407329;28;20352;-21
2022/06/05 20:51:59;;;;;;;0.40;0.40;;;;;;;19.51;57.10;96849.06;10456530;28;20047;-21
2022/06/05 20:57:00;;;;;;;0.47;0.30;;;;;;;19.50;56.95;96862.59;10453538;28;20038;-22
2022/06/05 21:07:08;;;;;;;0.35;0.35;;;;;;;19.50;56.96;96863.44;10407459;28;20041;-22
2022/06/05 21:07:29;;;;;;;0.43;0.43;;;;;;;19.53;59.80;96862.59;10438565;28;20044;-22
2022/06/05 21:17:52;;;;;;;0.20;0.20;;;;;;;19.78;56.97;96872.69;10407992;28;20643;-22
2022/06/05 21:22:54;;;;;;;0.25;0.25;;;;;;;19.64;57.23;96883.72;10407235;28;20037;-22
2022/06/05 21:27:56;;;;;;;0.20;0.20;;;;;;;19.58;57.05;96897.28;10415308;28;20459;-21
2022/06/05 21:33:05;;;;;;;0.25;0.20;;;;;;;19.56;57.17;96903.19;10427799;28;20487;-21
2022/06/05 21:38:27;;;;;;;1.13;0.30;;;;;;;19.52;56.92;96901.53;10421721;28;20458;-22
2022/06/05 21:43:48;;;;;;;0.40;0.40;;;;;;;19.52;57.11;96906.59;10413893;28;20037;-22
2022/06/05 21:48:48;;;;;;;0.40;0.40;;;;;;;19.52;57.10;96911.69;10414188;28;20037;-23
2022/06/05 21:53:51;;;;;;;0.40;0.40;;;;;;;19.51;57.14;96915.06;10478669;28;20032;-21
2022/06/05 21:58:52;;;;;;;0.20;0.20;;;;;;;19.50;57.13;96908.31;10430025;28;20068;-21
2022/06/05 22:03:53;;;;;;;0.40;0.40;;;;;;;19.51;57.08;96915.06;10414048;28;20068;-21
2022/06/05 22:08:54;;;;;;;0.20;0.20;;;;;;;19.69;57.82;96902.34;10413143;28;20121;-22
2022/06/05 22:13:54;;;;;;;0.30;0.30;;;;;;;19.85;56.66;96906.56;10413613;28;20577;-21
2022/06/05 22:18:55;;;;;;;0.20;0.20;;;;;;;19.70;57.30;96906.56;10413371;28;20095;-21
2022/06/05 22:23:56;;;;;;;0.23;0.23;;;;;;;19.60;57.20;96910.00;10412599;28;20468;-21
2022/06/05 22:28:57;;;;;;;0.30;0.30;;;;;;;19.57;57.29;96915.06;10412290;28;20049;-21
2022/06/05 22:33:57;;;;;;;0.50;0.40;;;;;;;19.56;57.32;96910.81;10424316;28;20029;-22
2022/06/05 22:38:58;;;;;;;0.35;0.35;;;;;;;19.53;57.11;96910.84;10411838;28;20038;-22
2022/06/05 22:43:59;;;;;;;1.60;0.30;;;;;;;19.51;57.12;96910.81;10411557;28;20029;-21
2022/06/05 22:49:01;;;;;;;0.28;0.28;;;;;;;19.50;56.95;96904.06;10412476;28;20037;-22
2022/06/05 22:54:03;;;;;;;0.30;0.30;;;;;;;19.49;57.00;96893.94;10487023;28;20033;-21
2022/06/05 22:59:04;;;;;;;0.50;0.40;;;;;;;19.50;57.18;96903.22;10457806;28;20036;-21
2022/06/05 23:04:04;;;;;;;0.20;0.20;;;;;;;19.54;59.06;96904.91;10444380;28;20033;-21
2022/06/05 23:09:07;;;;;;;0.10;0.10;;;;;;;19.77;57.86;96895.56;10411079;28;20484;-21
2022/06/05 23:14:07;;;;;;;0.25;0.25;;;;;;;19.79;57.31;96892.19;10445160;28;20310;-22
2022/06/05 23:24:26;;;;;;;0.20;0.13;;;;;;;19.58;56.91;96894.75;10410124;28;20272;-21
2022/06/05 23:29:27;;;;;;;0.30;0.30;;;;;;;19.56;57.05;96893.91;10409800;28;20191;-23
2022/06/05 23:34:31;;;;;;;0.20;0.20;;;;;;;19.54;57.26;96885.44;10432898;28;20033;-21
2022/06/05 23:39:31;;;;;;;0.38;0.38;;;;;;;19.53;57.07;96877.81;10410287;28;20037;-21
2022/06/05 23:44:32;;;;;;;0.20;0.20;;;;;;;19.52;57.08;96883.75;10409365;28;20096;-21
2022/06/05 23:49:33;;;;;;;0.40;0.40;;;;;;;19.51;57.25;96879.53;10408103;28;20476;-21
2022/06/05 23:54:33;;;;;;;0.47;0.47;;;;;;;19.51;57.05;96877.00;10485843;28;20032;-21
2022/06/05 23:59:34;;;;;;;0.20;0.20;;;;;;;19.50;57.11;96870.22;10413171;28;20040;-22
